TJNR/NRR METAR and TAF weather

Enter ICAO airport designator
Station Type Date Time Source
TJNR METAR 2020/09/28 05:53 UTC NOAA

TJNR 280553Z AUTO 11005KT 10SM CLR 26/23 A2989 RMK AO2 RAB08E17 SLP123 P0000 60000 T02610233 10283 20261 58009


Station Type Date Time Source
TJNR Decoded METAR 2020/09/28 05:53 UTC NOAA

ROOSEVELT ROADS PUERTO RICO, PR, United States (TJNR) 18-15N 65-38W 10M
Sep 28, 2020 - 01:53 AM EDT / 2020.09.28 0553 UTC
Wind: from the ESE (110 degrees) at 6 MPH (5 KT):0
Visibility: 10 mile(s):0
Sky conditions: clear
Precipitation last hour: A trace
Temperature: 79.0 F (26.1 C)
Dew Point: 73.9 F (23.3 C)
Relative Humidity: 84%
Pressure (altimeter): 29.89 in. Hg (1012 hPa)
Pressure tendency: 0.03 inches (0.9 hPa) lower than three hours ago
ob: TJNR 280553Z AUTO 11005KT 10SM CLR 26/23 A2989 RMK AO2 RAB08E17 SLP123 P0000 60000 T02610233 10283 20261 58009
cycle: 6

Station Type Date Time Source
TJNR TAF UTC NOAA

Error!

Example: see airport list